• Join FlightAware (Why Join?)
  • Login
  • US Flag 
12:36PM EDT


 

Airport Tracker/Info


-or-


 

Live Flight TrackerFlight Track Log ✈ SWA484 ✈ 26-Apr-2013 ✈ KMCO - KBDL

Flight Track Log - Related Links

Times and Time Zones

All times are in EDT time to prevent confusion due to time zone crossing. See the SWA484 flight status page for this flight to view local times or setup timezone preferences in your user account.

Time Position Orientation Groundspeed Altitude Reporting Facility
EDT Latitude Longitude Course Direction KTS MPH feet Rate Location/Type
09:55AM 28.4000 -81.3000 139° Southeast 164 189 800  Level Orlando TRACON
09:56AM 28.3500 -81.2500 139° Southeast 231 266 3,300 2,340 Climbing Orlando TRACON
09:57AM 28.3833 -81.2333 24° Northeast 221 254 6,000 2,820 Climbing Orlando TRACON
09:58AM 28.4667 -81.2500 350° North 278 320 9,000 3,000 Climbing Orlando TRACON
10:00AM 28.6408 -81.2842 350° North 310 357 15,500 2,820 Climbing Jacksonville Center
10:01AM 28.7369 -81.3039 350° North 335 386 17,900 2,340 Climbing Jacksonville Center
10:02AM 28.8417 -81.3306 347° North 361 415 20,200 2,520 Climbing Jacksonville Center
10:03AM 28.9506 -81.3572 348° North 380 437 23,000 2,520 Climbing Jacksonville Center
10:04AM 29.0636 -81.3817 349° North 399 459 25,300 2,220 Climbing Jacksonville Center
10:05AM 29.1806 -81.3989 353° North 412 474 27,500 2,040 Climbing Jacksonville Center
10:06AM 29.3017 -81.4114 355° North 422 486 29,400 2,160 Climbing Jacksonville Center
10:07AM 29.4314 -81.4239 355° North 428 493 31,800 2,100 Climbing Jacksonville Center
10:08AM 29.5506 -81.4364 355° North 428 493 33,600 1,800 Climbing Jacksonville Center
10:09AM 29.6675 -81.4394 359° North 428 493 35,400 1,680 Climbing Jacksonville Center
10:10AM 29.7842 -81.4281 North 417 480 37,000 780 Climbing Jacksonville Center
10:11AM 29.9008 -81.4142 North 417 480 37,000  Level Jacksonville Center
10:12AM 30.0053 -81.4056 North 417 480 37,000  Level Jacksonville Center
10:13AM 30.1200 -81.3942 North 417 480 37,000  Level Jacksonville Center
10:14AM 30.2347 -81.3828 North 417 480 37,000  Level Jacksonville Center
10:15AM 30.3472 -81.3689 North 417 480 37,000  Level Jacksonville Center
10:16AM 30.4619 -81.3597 North 412 474 37,000  Level Jacksonville Center
10:17AM 30.5767 -81.3483 North 407 468 37,000  Level Jacksonville Center
10:18AM 30.6914 -81.3392 North 407 468 37,000  Level Jacksonville Center
10:19AM 30.8081 -81.3300 North 407 468 37,000  Level Jacksonville Center
10:20AM 30.9228 -81.3186 North 407 468 37,000  Level Jacksonville Center
10:21AM 31.0397 -81.3092 North 407 468 37,000  Level Jacksonville Center
10:22AM 31.1544 -81.2975 North 407 468 37,000  Level Jacksonville Center
10:23AM 31.2692 -81.2883 North 407 468 37,000  Level Jacksonville Center
10:24AM 31.3942 -81.2717 North 407 468 37,000  Level Jacksonville Center
10:25AM 31.5108 -81.2597 North 407 468 37,000  Level Jacksonville Center
10:26AM 31.6131 -81.2508 North 407 468 37,000  Level Jacksonville Center
10:27AM 31.7381 -81.2389 North 407 468 37,000  Level Jacksonville Center
10:28AM 31.8403 -81.2272 North 407 468 37,000  Level Jacksonville Center
10:29AM 31.9572 -81.2200 North 407 468 37,000  Level Jacksonville Center
10:30AM 32.0719 -81.2108 North 407 468 37,000  Level Jacksonville Center
10:31AM 32.1797 -81.1572 23° Northeast 407 468 37,000  Level Jacksonville Center
10:32AM 32.2694 -81.0178 53° Northeast 433 498 37,000  Level Jacksonville Center
10:33AM 32.3408 -80.9083 52° Northeast 460 529 37,000  Level Jacksonville Center
10:34AM 32.4183 -80.7811 54° Northeast 470 541 37,000  Level Jacksonville Center
10:35AM 32.4997 -80.6561 52° Northeast 470 541 37,000  Level Jacksonville Center
10:36AM 32.5808 -80.5308 52° Northeast 470 541 37,000  Level Jacksonville Center
10:37AM 32.6619 -80.4028 53° Northeast 470 541 37,000  Level Jacksonville Center
10:38AM 32.7408 -80.2772 53° Northeast 476 548 37,000  Level Jacksonville Center
10:39AM 32.8294 -80.1361 53° Northeast 476 548 37,000  Level Jacksonville Center
10:40AM 32.9189 -80.0194 48° Northeast 481 554 37,000  Level Jacksonville Center
10:41AM 33.0236 -79.9419 32° Northeast 452 520 37,000  Level Jacksonville Center
10:42AM 33.1303 -79.8639 31° Northeast 452 520 37,000  Level Jacksonville Center
10:43AM 33.2369 -79.7883 31° Northeast 447 514 37,000  Level Jacksonville Center
10:44AM 33.3414 -79.7125 31° Northeast 441 507 37,000  Level Jacksonville Center
10:45AM 33.4481 -79.6342 31° Northeast 441 507 37,000  Level Jacksonville Center
10:46AM 33.5522 -79.5556 32° Northeast 441 507 37,000  Level Jacksonville Center
10:47AM 33.6567 -79.4792 31° Northeast 441 507 37,000  Level Jacksonville Center
10:48AM 33.7406 -79.4161 32° Northeast 421 484 37,000  Level Jacksonville Center
10:49AM 33.8489 -79.3392 31° Northeast 421 484 37,000  Level Jacksonville Center
10:51AM 34.0597 -79.1789 32° Northeast 447 514 37,000  Level Washington Center
10:52AM 34.1642 -79.1031 31° Northeast 447 514 37,000  Level Washington Center
10:53AM 34.2708 -79.0247 31° Northeast 447 514 37,000  Level Washington Center
10:54AM 34.3772 -78.9461 31° Northeast 447 514 37,000  Level Washington Center
10:55AM 34.4839 -78.8647 32° Northeast 447 514 37,000  Level Washington Center
10:56AM 34.5883 -78.7808 33° Northeast 447 514 37,000  Level Washington Center
10:57AM 34.7053 -78.6944 31° Northeast 447 514 37,000  Level Washington Center
10:58AM 34.8011 -78.6194 33° Northeast 447 514 37,000  Level Washington Center
10:59AM 34.9033 -78.5397 33° Northeast 442 509 37,000  Level Washington Center
11:00AM 35.0097 -78.4600 32° Northeast 442 509 37,000  Level Washington Center
11:01AM 35.1117 -78.3800 33° Northeast 442 509 37,000  Level Washington Center
11:02AM 35.2158 -78.2969 33° Northeast 447 514 37,000  Level Washington Center
11:03AM 35.3197 -78.2167 32° Northeast 447 514 37,000  Level Washington Center
11:04AM 35.4239 -78.1358 32° Northeast 441 507 37,000  Level Washington Center
11:05AM 35.5278 -78.0550 32° Northeast 441 507 37,000  Level Washington Center
11:06AM 35.6336 -77.9739 32° Northeast 441 507 37,000  Level Washington Center
11:07AM 35.7503 -77.8853 32° Northeast 447 514 37,000  Level Washington Center
11:08AM 35.8561 -77.8036 32° Northeast 447 514 37,000  Level Washington Center
11:09AM 35.9578 -77.7192 34° Northeast 447 514 37,000  Level Washington Center
11:10AM 36.0636 -77.6269 35° Northeast 447 514 37,000  Level Washington Center
11:11AM 36.1653 -77.5319 37° Northeast 457 526 37,000  Level Washington Center
11:12AM 36.2628 -77.4417 37° Northeast 449 517 37,000  Level Washington Center
11:13AM 36.3622 -77.3458 38° Northeast 444 511 37,000  Level Washington Center
11:14AM 36.4511 -77.2628 37° Northeast 444 511 37,000  Level Washington Center
11:15AM 36.5506 -77.1692 37° Northeast 444 511 37,000  Level Washington Center
11:16AM 36.6475 -77.0753 38° Northeast 444 511 37,000  Level Washington Center
11:17AM 36.7467 -76.9814 37° Northeast 444 511 37,000  Level Washington Center
11:18AM 36.8481 -76.8897 36° Northeast 444 511 37,000  Level Washington Center
11:19AM 36.9492 -76.7978 36° Northeast 444 511 37,000  Level Washington Center
11:20AM 37.0500 -76.7083 35° Northeast 444 511 37,000  Level Washington Center
11:21AM 37.1489 -76.6186 36° Northeast 444 511 37,000  Level Washington Center
11:22AM 37.2497 -76.5258 36° Northeast 444 511 37,000  Level Washington Center
11:23AM 37.3506 -76.4331 36° Northeast 444 511 37,000  Level Washington Center
11:24AM 37.4597 -76.3347 36° Northeast 444 511 37,000  Level Washington Center
11:25AM 37.5583 -76.2414 37° Northeast 444 511 37,000  Level Washington Center
11:26AM 37.6400 -76.1686 35° Northeast 444 511 37,000  Level Washington Center
11:27AM 37.7614 -76.0619 35° Northeast 439 505 37,000  Level Washington Center
11:28AM 37.8597 -75.9625 39° Northeast 444 511 37,000  Level Washington Center
11:29AM 37.9600 -75.8708 36° Northeast 444 511 37,000  Level Washington Center
11:30AM 38.0603 -75.7764 37° Northeast 444 511 37,000  Level Washington Center
11:31AM 38.1606 -75.6842 36° Northeast 449 517 37,000  Level Washington Center
11:32AM 38.2628 -75.5892 36° Northeast 449 517 37,000  Level Washington Center
11:33AM 38.3692 -75.5042 32° Northeast 454 522 37,000  Level Washington Center
11:34AM 38.4836 -75.4539 19° North 437 503 37,000  Level Washington Center
11:35AM 38.6006 -75.4111 16° North 432 497 37,000  Level Washington Center
11:36AM 38.7128 -75.3575 20° North 432 497 37,000  Level Washington Center
11:37AM 38.8317 -75.3064 19° North 432 497 37,000 -360 Level Washington Center
11:38AM 38.9483 -75.2633 16° North 437 503 36,300 -900 Descending Washington Center
11:39AM 39.0647 -75.2147 18° North 437 503 35,300 -1,140 Descending Washington Center
11:40AM 39.1750 -75.1633 20° North 437 503 34,000 -1,200 Descending Washington Center
11:41AM 39.2875 -75.1197 17° North 427 491 33,000 -540 Descending Washington Center
11:42AM 39.3831 -75.0197 39° Northeast 422 486 33,000  Level Washington Center
11:43AM 39.4700 -74.9142 43° Northeast 422 486 33,000 -300 Level Washington Center
11:44AM 39.5589 -74.8056 43° Northeast 428 493 32,500 -720 Descending Washington Center
11:45AM 39.6497 -74.6994 42° Northeast 434 499 31,600 -960 Descending Washington Center
11:46AM 39.7386 -74.5906 43° Northeast 439 505 30,600 -1,020 Descending Washington Center
11:49AM 39.9492 -74.3397 42° Northeast 408 470 28,200 -1,020 Descending New York Center
11:50AM 40.0336 -74.2356 43° Northeast 414 476 27,200 -1,020 Descending New York Center
11:51AM 40.1200 -74.1339 42° Northeast 414 476 26,200 -1,140 Descending New York Center
11:52AM 40.2039 -74.0322 43° Northeast 409 471 25,000 -600 Descending New York Center
11:53AM 40.2839 -73.9325 44° Northeast 399 459 25,000  Level New York Center
11:55AM 40.4453 -73.7408 42° Northeast 405 466 25,000 -180 Level New York Center
11:56AM 40.5247 -73.6378 45° Northeast 405 466 24,500 -1,620 Descending New York Center
11:58AM 40.6725 -73.4497 44° Northeast 402 463 20,500 -1,980 Descending Boston Center
11:59AM 40.7419 -73.3658 42° Northeast 381 438 19,000 -780 Descending Boston Center
12:00PM 40.8175 -73.2764 42° Northeast 368 423 19,000  Level Boston Center
12:01PM 40.8953 -73.1869 41° Northeast 368 423 19,000  Level Boston Center
12:02PM 40.9750 -73.0972 40° Northeast 368 423 19,000 -600 Level Boston Center
12:03PM 41.0569 -72.9989 42° Northeast 368 423 17,900 -1,620 Descending Boston Center
12:04PM 41.1322 -72.9086 42° Northeast 368 423 15,800 -2,160 Descending Boston Center
12:04PM 41.1931 -72.8400 40° Northeast 361 415 14,000 -2,160 Descending Boston Center
12:06PM 41.2747 -72.7383 43° Northeast 350 403 11,700 -1,440 Descending Boston Center
12:07PM 41.3558 -72.7333 North 302 348 11,000 -780 Descending Boston Center
12:08PM 41.4267 -72.7889 330° Northwest 283 326 10,200 -780 Descending Boston Center
12:09PM 41.5078 -72.8558 328° Northwest 275 316 9,300 -1,020 Descending Boston Center
12:10PM 41.5806 -72.8897 341° North 282 325 8,000 -1,020 Descending Boston Center
12:11PM 41.6472 -72.9039 351° North 248 285 7,300 -960 Descending Boston Center
12:12PM 41.7158 -72.9156 353° North 231 266 6,100 -1,320 Descending Boston Center
12:13PM 41.7617 -72.8881 24° Northeast 229 264 5,000 -1,320 Descending Boston Center
12:14PM 41.8161 -72.8494 28° Northeast 227 261 3,800 -1,440 Descending Boston Center
12:15PM 41.8600 -72.7942 43° Northeast 219 252 2,100 -1,320 Descending Boston Center
12:16PM 41.8956 -72.7469 45° Northeast 189 217 1,200 -900 Descending Boston Center
12:17PM 41.9250 -72.7081 44° Northeast 143 165 300 -900 Descending Boston Center
12:19PM 41.9333 -72.6833 45° Northeast  Level FlightAware Approximate
12:26PM 41.9392 -72.6834 45° Northeast  Level Estimated